Time;durP1;ratioP1;P1;durP2;ratioP2;P2;SDS_P1;SDS_P2;PMS_P1;PMS_P2;Temp;Humidity;BMP_temperature;BMP_pressure;BME280_temperature;BME280_humidity;BME280_pressure;Samples;Min_cycle;Max_cycle;Signal;HPM_P1;HPM_P2
2022/01/22 00:02:37;;;;;;;5.70;4.60;;;4.20;99.90;;;;;;5005654;28;20465;-79
2022/01/22 00:05:22;;;;;;;4.90;4.40;;;4.20;99.90;;;;;;5006900;28;20875;-79
2022/01/22 00:08:07;;;;;;;4.40;3.93;;;4.20;99.90;;;;;;5009670;28;20379;-79
2022/01/22 00:10:52;;;;;;;3.00;2.70;;;4.10;99.90;;;;;;5006627;28;20397;-79
2022/01/22 00:16:39;;;;;;;4.17;3.77;;;4.20;99.90;;;;;;5007144;28;20713;-79
2022/01/22 00:19:25;;;;;;;4.57;4.00;;;4.20;99.90;;;;;;5007179;28;20425;-79
2022/01/22 00:22:09;;;;;;;3.87;3.57;;;4.20;99.90;;;;;;5008986;28;20436;-79
2022/01/22 00:24:57;;;;;;;7.27;3.30;;;4.30;99.90;;;;;;4994944;28;21077;-79
2022/01/22 00:27:44;;;;;;;4.77;3.90;;;4.30;99.90;;;;;;5010676;28;20379;-79
2022/01/22 00:30:28;;;;;;;6.60;3.77;;;4.40;99.90;;;;;;5011791;28;20397;-79
2022/01/22 00:33:15;;;;;;;3.53;3.23;;;4.30;99.90;;;;;;5012922;28;20462;-79
2022/01/22 00:35:59;;;;;;;5.50;4.20;;;4.30;99.90;;;;;;5012638;28;20351;-79
2022/01/22 00:38:45;;;;;;;6.27;4.63;;;4.40;99.90;;;;;;4998236;28;20369;-79
2022/01/22 00:41:29;;;;;;;5.57;3.60;;;4.40;99.90;;;;;;5012675;28;20412;-79
2022/01/22 00:44:14;;;;;;;3.57;3.27;;;4.40;99.90;;;;;;4998820;28;20359;-79
2022/01/22 00:47:00;;;;;;;4.17;3.80;;;4.40;99.90;;;;;;5012074;28;20427;-79
2022/01/22 00:49:45;;;;;;;5.33;3.90;;;4.40;99.90;;;;;;4997140;28;20467;-79
2022/01/22 00:52:30;;;;;;;3.70;3.40;;;4.40;99.90;;;;;;4996811;28;20421;-79
2022/01/22 00:55:16;;;;;;;5.57;4.43;;;4.50;99.90;;;;;;5012238;28;20368;-80
2022/01/22 00:58:00;;;;;;;9.53;4.53;;;4.40;99.90;;;;;;5012868;28;20743;-79
2022/01/22 01:00:45;;;;;;;9.60;4.47;;;4.50;99.90;;;;;;5001799;28;20525;-79
2022/01/22 01:03:32;;;;;;;5.27;3.70;;;4.50;99.90;;;;;;5011385;28;20391;-79
2022/01/22 01:06:17;;;;;;;5.67;4.10;;;4.40;99.90;;;;;;5011423;28;20419;-79
2022/01/22 01:09:05;;;;;;;7.00;4.43;;;4.50;99.90;;;;;;5010776;28;20503;-79
2022/01/22 01:11:55;;;;;;;4.40;4.00;;;4.40;99.90;;;;;;5011695;28;20385;-79
2022/01/22 01:32:47;;;;;;;6.93;4.63;;;4.50;99.90;;;;;;5011936;28;20436;-79
2022/01/22 01:35:34;;;;;;;4.77;3.73;;;4.50;99.90;;;;;;5012070;28;20428;-79
2022/01/22 01:38:21;;;;;;;4.60;4.00;;;4.40;99.90;;;;;;5011916;28;20385;-79
2022/01/22 01:41:16;;;;;;;8.23;4.63;;;4.40;99.90;;;;;;5011465;28;20402;-79
2022/01/22 01:44:00;;;;;;;9.63;4.90;;;4.50;99.90;;;;;;5015648;28;20392;-79
2022/01/22 01:46:51;;;;;;;5.07;4.67;;;4.50;99.90;;;;;;5011923;28;20381;-79
2022/01/22 01:49:36;;;;;;;6.43;3.73;;;4.50;99.90;;;;;;5010635;28;20448;-79
2022/01/22 01:52:28;;;;;;;6.40;5.30;;;4.60;99.90;;;;;;4996124;28;20392;-79
2022/01/22 01:55:18;;;;;;;4.43;3.67;;;4.60;99.90;;;;;;5011046;28;20440;-79
2022/01/22 01:58:04;;;;;;;6.80;4.63;;;4.60;99.90;;;;;;5011982;28;20380;-79
2022/01/22 02:00:49;;;;;;;5.20;4.67;;;4.60;99.90;;;;;;5010877;28;20460;-79
2022/01/22 02:03:34;;;;;;;6.27;4.57;;;4.60;99.90;;;;;;5011935;28;20416;-79
2022/01/22 02:06:19;;;;;;;4.93;3.90;;;4.70;99.90;;;;;;5011968;28;20440;-79
2022/01/22 02:09:08;;;;;;;4.63;4.10;;;4.70;99.90;;;;;;5012156;28;20456;-79
2022/01/22 02:12:06;;;;;;;7.80;5.77;;;4.70;99.90;;;;;;5011698;28;20367;-79
2022/01/22 02:23:57;;;;;;;6.73;5.00;;;4.80;99.90;;;;;;5011370;28;20399;-79
2022/01/22 02:26:47;;;;;;;7.13;4.13;;;4.80;99.90;;;;;;5012963;28;20393;-79
2022/01/22 02:29:32;;;;;;;6.07;4.67;;;4.80;99.90;;;;;;5010710;28;20479;-79
2022/01/22 02:35:28;;;;;;;6.47;4.57;;;4.90;99.90;;;;;;5011190;28;20383;-80
2022/01/22 02:38:19;;;;;;;8.00;5.17;;;4.80;99.90;;;;;;5012444;28;20389;-79
2022/01/22 02:41:05;;;;;;;4.60;3.83;;;4.90;99.90;;;;;;5006076;28;20404;-79
2022/01/22 02:43:50;;;;;;;5.50;3.77;;;4.90;99.90;;;;;;5010592;28;20477;-79
2022/01/22 02:46:38;;;;;;;4.80;4.07;;;4.90;99.90;;;;;;5011528;28;20360;-79
2022/01/22 02:49:22;;;;;;;6.37;4.80;;;4.90;99.90;;;;;;5010288;28;20596;-79
2022/01/22 02:52:09;;;;;;;5.40;4.50;;;4.90;99.90;;;;;;5010582;28;20371;-79
2022/01/22 02:54:55;;;;;;;5.00;4.33;;;4.90;99.90;;;;;;5010610;28;20385;-79
2022/01/22 02:57:43;;;;;;;4.60;3.27;;;4.90;99.90;;;;;;5010370;28;20433;-79
2022/01/22 03:00:27;;;;;;;7.20;3.90;;;5.00;99.90;;;;;;5003701;28;20481;-79
2022/01/22 03:03:12;;;;;;;4.67;4.10;;;4.90;99.90;;;;;;4991438;28;20367;-79
2022/01/22 03:05:57;;;;;;;5.40;4.70;;;4.90;99.90;;;;;;4990807;28;20415;-79
2022/01/22 03:08:43;;;;;;;7.40;4.20;;;5.00;99.90;;;;;;4991580;28;20492;-79
2022/01/22 03:11:30;;;;;;;4.57;3.87;;;5.00;99.90;;;;;;4993368;28;20428;-79
2022/01/22 03:17:32;;;;;;;7.53;4.70;;;5.00;99.90;;;;;;4991366;28;20417;-79
2022/01/22 03:20:37;;;;;;;7.97;4.93;;;5.00;99.90;;;;;;4991512;28;20942;-80
2022/01/22 03:29:32;;;;;;;6.20;4.13;;;4.90;99.90;;;;;;4994378;28;20458;-79
2022/01/22 03:32:18;;;;;;;4.50;4.00;;;4.90;99.90;;;;;;4983978;28;20454;-79
2022/01/22 03:38:04;;;;;;;6.63;5.07;;;4.90;99.90;;;;;;4997205;28;20410;-79
2022/01/22 03:40:50;;;;;;;8.33;5.00;;;4.90;99.90;;;;;;4996405;28;20462;-79
2022/01/22 03:43:34;;;;;;;4.90;4.33;;;4.90;99.90;;;;;;4998893;28;20380;-78
2022/01/22 03:46:20;;;;;;;7.33;4.90;;;4.90;99.90;;;;;;4998646;28;20390;-78
2022/01/22 03:49:06;;;;;;;4.33;3.93;;;4.90;99.90;;;;;;4998316;28;20444;-79
2022/01/22 03:51:51;;;;;;;6.10;4.90;;;4.90;99.90;;;;;;4993423;28;20401;-80
2022/01/22 03:54:37;;;;;;;4.67;4.23;;;4.90;99.90;;;;;;4993069;28;20408;-80
2022/01/22 03:57:23;;;;;;;5.17;4.23;;;4.90;99.90;;;;;;4991690;28;20371;-80
2022/01/22 04:00:08;;;;;;;8.33;3.30;;;4.90;99.90;;;;;;4981807;28;20422;-80
2022/01/22 04:06:29;;;;;;;5.00;4.47;;;5.00;99.90;;;;;;5016100;28;20375;-80
2022/01/22 04:09:02;;;;;;;6.37;4.60;;;5.00;99.90;;;;;;5015751;28;20452;-79
2022/01/22 04:11:47;;;;;;;4.40;3.40;;;5.00;99.90;;;;;;5017623;28;20355;-79
2022/01/22 04:14:34;;;;;;;4.33;4.03;;;5.00;99.90;;;;;;5015025;28;20881;-79
2022/01/22 04:17:35;;;;;;;4.17;3.87;;;5.00;99.90;;;;;;5019081;28;20445;-79
2022/01/22 04:26:41;;;;;;;4.80;3.77;;;5.00;99.90;;;;;;5015706;28;20412;-79
2022/01/22 04:29:27;;;;;;;4.07;3.27;;;5.00;99.90;;;;;;5013984;28;20510;-79
2022/01/22 04:32:12;;;;;;;3.90;3.50;;;5.00;99.90;;;;;;4999040;28;20383;-79
2022/01/22 04:34:56;;;;;;;4.13;3.37;;;5.00;99.90;;;;;;5013243;28;20378;-79
2022/01/22 04:37:41;;;;;;;5.17;3.63;;;5.00;99.90;;;;;;5017835;28;20444;-79
2022/01/22 04:40:26;;;;;;;4.90;4.40;;;5.00;99.90;;;;;;5016823;28;20392;-79
2022/01/22 04:43:11;;;;;;;5.23;4.83;;;5.10;99.90;;;;;;4999323;28;20445;-79
2022/01/22 04:46:18;;;;;;;4.13;3.53;;;5.00;99.90;;;;;;5017574;28;20427;-79
2022/01/22 04:55:00;;;;;;;4.00;3.70;;;5.10;99.90;;;;;;5032667;28;20452;-80
2022/01/22 04:57:46;;;;;;;5.03;3.90;;;5.10;99.90;;;;;;5033074;28;20395;-79
2022/01/22 05:00:32;;;;;;;3.37;3.17;;;5.10;99.90;;;;;;5032649;28;20963;-80
2022/01/22 05:03:17;;;;;;;5.13;3.87;;;5.10;99.90;;;;;;5032977;28;20562;-79
2022/01/22 05:06:06;;;;;;;7.20;3.80;;;5.10;99.90;;;;;;5018146;28;20461;-79
2022/01/22 05:08:50;;;;;;;3.97;3.67;;;5.10;99.90;;;;;;5033504;28;20466;-79
2022/01/22 05:11:35;;;;;;;19.40;4.70;;;5.10;99.90;;;;;;5033140;28;20386;-80
2022/01/22 05:14:20;;;;;;;5.07;3.20;;;5.10;99.90;;;;;;5032839;28;20459;-79
2022/01/22 05:17:07;;;;;;;3.90;3.50;;;5.10;99.90;;;;;;5018563;28;20358;-79
2022/01/22 05:19:59;;;;;;;4.90;4.43;;;5.10;99.90;;;;;;5032776;28;20399;-79
2022/01/22 05:22:55;;;;;;;4.20;3.27;;;5.10;99.90;;;;;;5032278;28;20471;-79
2022/01/22 05:25:45;;;;;;;3.87;3.40;;;5.10;99.90;;;;;;5031591;28;20874;-79
2022/01/22 05:31:41;;;;;;;3.40;3.13;;;5.10;99.90;;;;;;5032342;28;20366;-79
2022/01/22 05:37:23;;;;;;;3.97;3.57;;;5.10;99.90;;;;;;5032799;28;20365;-79
2022/01/22 05:40:08;;;;;;;2.70;2.33;;;5.10;99.90;;;;;;5034392;28;20395;-79
2022/01/22 05:42:53;;;;;;;3.87;3.57;;;5.10;99.90;;;;;;5034884;28;20367;-79
2022/01/22 05:45:38;;;;;;;2.80;2.60;;;5.00;99.90;;;;;;5034222;28;20395;-79
2022/01/22 05:48:23;;;;;;;3.40;3.00;;;5.00;99.90;;;;;;5035158;28;20572;-79
2022/01/22 05:51:08;;;;;;;2.67;2.47;;;5.00;99.90;;;;;;5032675;28;20390;-79
2022/01/22 06:00:03;;;;;;;2.80;2.60;;;5.10;99.90;;;;;;5031337;28;20453;-79
2022/01/22 06:02:47;;;;;;;3.20;2.23;;;5.10;99.90;;;;;;5016938;28;20424;-79
2022/01/22 06:05:32;;;;;;;3.27;2.43;;;5.10;99.90;;;;;;5032331;28;20374;-79
2022/01/22 06:08:17;;;;;;;3.50;3.23;;;5.00;99.90;;;;;;5030950;28;20408;-79
2022/01/22 06:11:08;;;;;;;3.50;3.20;;;5.00;99.90;;;;;;5030388;28;20380;-79
2022/01/22 06:13:53;;;;;;;3.07;2.80;;;5.00;99.90;;;;;;5031239;28;20362;-79
2022/01/22 06:16:38;;;;;;;3.73;3.33;;;5.00;99.90;;;;;;5031107;28;20480;-79
2022/01/22 06:19:22;;;;;;;2.80;2.50;;;5.10;99.90;;;;;;5032086;28;20400;-79
2022/01/22 06:22:07;;;;;;;3.97;3.63;;;5.00;99.90;;;;;;5031107;28;20435;-80
2022/01/22 06:24:51;;;;;;;3.90;2.93;;;5.00;99.90;;;;;;5031465;28;20375;-79
2022/01/22 06:27:36;;;;;;;4.50;2.90;;;5.00;99.90;;;;;;5032591;28;20418;-79
2022/01/22 06:30:21;;;;;;;2.80;2.60;;;5.00;99.90;;;;;;5031386;28;20508;-79
2022/01/22 06:33:05;;;;;;;4.87;3.27;;;5.00;99.90;;;;;;5031826;28;20371;-79
2022/01/22 06:35:50;;;;;;;3.20;3.00;;;5.00;99.90;;;;;;5030741;28;20416;-79
2022/01/22 06:38:35;;;;;;;2.40;2.30;;;5.00;99.90;;;;;;5031373;28;20400;-79
2022/01/22 06:44:22;;;;;;;3.07;2.73;;;5.10;99.90;;;;;;5031863;28;20412;-79
2022/01/22 06:47:07;;;;;;;4.57;3.30;;;5.10;99.90;;;;;;5031283;28;20411;-79
2022/01/22 06:49:52;;;;;;;3.50;3.20;;;5.10;99.90;;;;;;5025823;28;20417;-79
2022/01/22 06:52:38;;;;;;;3.00;2.80;;;5.10;99.90;;;;;;5031815;28;20412;-79
2022/01/22 06:55:39;;;;;;;3.20;3.00;;;5.10;99.90;;;;;;5031352;28;20413;-79
2022/01/22 06:58:24;;;;;;;3.30;2.80;;;5.10;99.90;;;;;;5031618;28;20358;-79
2022/01/22 07:01:08;;;;;;;5.60;3.50;;;5.10;99.90;;;;;;5031348;28;20426;-79
2022/01/22 07:03:54;;;;;;;2.67;2.10;;;5.20;99.90;;;;;;5031768;28;20366;-79
2022/01/22 07:06:39;;;;;;;8.60;2.80;;;5.20;99.90;;;;;;5032270;28;20388;-79
2022/01/22 07:09:24;;;;;;;4.33;3.20;;;5.20;99.90;;;;;;5034427;28;20515;-79
2022/01/22 07:12:10;;;;;;;2.77;2.57;;;5.20;99.90;;;;;;5034393;28;20408;-79
2022/01/22 07:14:55;;;;;;;2.80;2.50;;;5.20;99.90;;;;;;5034206;28;20353;-79
2022/01/22 07:17:40;;;;;;;2.23;2.13;;;5.20;99.90;;;;;;5034595;28;20906;-79
2022/01/22 07:20:28;;;;;;;2.60;2.40;;;5.20;99.90;;;;;;5033059;28;20396;-79
2022/01/22 07:23:20;;;;;;;2.47;2.27;;;5.20;99.90;;;;;;5033529;28;20455;-79
2022/01/22 07:26:06;;;;;;;4.63;2.70;;;5.30;99.90;;;;;;5034752;28;20396;-79
2022/01/22 07:28:51;;;;;;;9.43;2.30;;;5.30;99.90;;;;;;5034435;28;20437;-79
2022/01/22 07:31:35;;;;;;;3.03;2.70;;;5.30;99.90;;;;;;5035320;28;20401;-79
2022/01/22 07:34:20;;;;;;;3.20;3.00;;;5.30;99.90;;;;;;5034652;28;20358;-79
2022/01/22 07:37:04;;;;;;;3.13;2.67;;;5.30;99.90;;;;;;5035274;28;20379;-79
2022/01/22 07:39:50;;;;;;;2.83;2.63;;;5.30;99.90;;;;;;5036965;28;20394;-79
2022/01/22 07:42:36;;;;;;;3.20;2.93;;;5.30;99.90;;;;;;5040060;28;20474;-80
2022/01/22 07:45:21;;;;;;;2.63;2.43;;;5.30;99.90;;;;;;5039446;28;20399;-79
2022/01/22 07:48:06;;;;;;;4.00;2.40;;;5.30;99.90;;;;;;5039922;28;20399;-79
2022/01/22 07:50:50;;;;;;;3.70;3.40;;;5.30;99.90;;;;;;5036657;28;20392;-79
2022/01/22 07:53:35;;;;;;;2.70;2.50;;;5.30;99.90;;;;;;5035841;28;20403;-79
2022/01/22 07:56:20;;;;;;;4.50;3.83;;;5.30;99.90;;;;;;5035284;28;20387;-79
2022/01/22 07:59:04;;;;;;;2.10;2.00;;;5.40;99.90;;;;;;5034824;28;20387;-79
2022/01/22 08:01:49;;;;;;;3.63;3.37;;;5.40;99.90;;;;;;5034234;28;20440;-79
2022/01/22 08:04:34;;;;;;;3.60;3.30;;;5.40;99.90;;;;;;5033959;28;20370;-79
2022/01/22 08:07:19;;;;;;;3.07;2.77;;;5.30;99.90;;;;;;5034663;28;20392;-79
2022/01/22 08:10:08;;;;;;;9.00;3.53;;;5.30;99.90;;;;;;5034176;28;20508;-79
2022/01/22 08:12:53;;;;;;;4.20;3.50;;;5.40;99.90;;;;;;5020907;28;20387;-80
2022/01/22 08:15:38;;;;;;;2.37;2.20;;;5.40;99.90;;;;;;5035259;28;20400;-79
2022/01/22 08:18:22;;;;;;;3.57;2.67;;;5.40;99.90;;;;;;5035015;28;20354;-79
2022/01/22 08:21:07;;;;;;;5.50;2.70;;;5.40;99.90;;;;;;5033983;28;20399;-79
2022/01/22 08:23:52;;;;;;;2.73;2.30;;;5.40;99.90;;;;;;5034844;28;20395;-79
2022/01/22 08:26:42;;;;;;;3.03;2.80;;;5.50;99.90;;;;;;5034245;28;20358;-79
2022/01/22 08:29:26;;;;;;;2.87;2.50;;;5.50;99.90;;;;;;5034048;28;20429;-79
2022/01/22 08:32:44;;;;;;;2.70;2.50;;;5.50;99.90;;;;;;5032950;28;20398;-79
2022/01/22 08:38:14;;;;;;;2.73;2.40;;;5.50;99.90;;;;;;5033503;28;20391;-79
2022/01/22 08:40:59;;;;;;;2.93;2.73;;;5.50;99.90;;;;;;5033258;28;20419;-79
2022/01/22 08:43:43;;;;;;;2.70;2.50;;;5.50;99.90;;;;;;5032529;28;20404;-79
2022/01/22 08:46:29;;;;;;;2.80;2.60;;;5.50;99.90;;;;;;5018956;28;20383;-79
2022/01/22 08:49:13;;;;;;;2.93;2.53;;;5.60;99.90;;;;;;5033985;28;20447;-79
2022/01/22 08:51:58;;;;;;;3.77;3.47;;;5.50;99.90;;;;;;5031181;28;20403;-79
2022/01/22 08:54:44;;;;;;;3.80;3.13;;;5.50;99.90;;;;;;5031743;28;20402;-79
2022/01/22 08:57:28;;;;;;;3.10;2.80;;;5.60;99.90;;;;;;5032974;28;20398;-78
2022/01/22 09:00:13;;;;;;;2.60;2.27;;;5.50;99.90;;;;;;5017783;28;20477;-79
2022/01/22 09:02:59;;;;;;;3.10;2.33;;;5.50;99.90;;;;;;5032558;28;20480;-79
2022/01/22 09:05:44;;;;;;;3.03;2.50;;;5.60;99.90;;;;;;5018501;28;20392;-79
2022/01/22 09:08:28;;;;;;;3.07;2.80;;;5.60;99.90;;;;;;5032096;28;20393;-80
2022/01/22 09:11:13;;;;;;;2.80;2.60;;;5.60;99.90;;;;;;5032919;28;20383;-79
2022/01/22 09:13:59;;;;;;;3.67;3.37;;;5.70;99.90;;;;;;5032350;28;20407;-79
2022/01/22 09:16:45;;;;;;;2.40;2.20;;;5.60;99.90;;;;;;5018456;28;20380;-79
2022/01/22 09:19:34;;;;;;;4.50;2.80;;;5.60;99.90;;;;;;5031908;28;20997;-79
2022/01/22 09:22:19;;;;;;;3.13;2.50;;;5.70;99.90;;;;;;5030988;28;20422;-79
2022/01/22 09:25:04;;;;;;;2.73;2.53;;;5.70;99.90;;;;;;5032120;28;20399;-79
2022/01/22 09:27:49;;;;;;;2.50;2.30;;;5.70;99.90;;;;;;5016646;28;20370;-79
2022/01/22 09:30:35;;;;;;;2.90;2.67;;;5.70;99.90;;;;;;5032093;28;21002;-79
2022/01/22 09:33:20;;;;;;;2.90;2.67;;;5.70;99.90;;;;;;5032800;28;20371;-79
2022/01/22 09:36:05;;;;;;;5.43;3.37;;;5.70;99.90;;;;;;5032494;28;20391;-79
2022/01/22 09:38:50;;;;;;;3.00;2.70;;;5.80;99.90;;;;;;5001413;28;20392;-79
2022/01/22 09:41:36;;;;;;;2.90;2.60;;;5.90;99.90;;;;;;5003545;28;20447;-79
2022/01/22 09:44:20;;;;;;;3.00;2.40;;;5.90;99.90;;;;;;5033022;28;20423;-79
2022/01/22 09:47:07;;;;;;;7.80;3.87;;;5.90;99.90;;;;;;5032670;28;20424;-79
2022/01/22 09:49:51;;;;;;;4.50;2.70;;;5.90;99.90;;;;;;5029995;28;20796;-78
2022/01/22 09:52:37;;;;;;;2.77;2.57;;;5.90;99.90;;;;;;5003928;28;20403;-79
2022/01/22 09:55:22;;;;;;;3.97;3.60;;;5.90;99.90;;;;;;5032938;28;20407;-78
2022/01/22 09:58:07;;;;;;;5.20;4.57;;;5.90;99.90;;;;;;5032666;28;20399;-79
2022/01/22 10:00:52;;;;;;;4.00;3.57;;;6.00;99.90;;;;;;5032183;28;20479;-79
2022/01/22 10:03:39;;;;;;;3.93;3.50;;;6.00;99.90;;;;;;5032010;28;20399;-79
2022/01/22 10:06:30;;;;;;;3.03;2.67;;;6.10;99.90;;;;;;5032407;28;20389;-79
2022/01/22 10:09:25;;;;;;;3.13;2.93;;;6.10;99.90;;;;;;5031973;28;20987;-79
2022/01/22 10:12:16;;;;;;;2.60;2.40;;;6.10;99.90;;;;;;5031758;28;20409;-79
2022/01/22 10:15:18;;;;;;;4.63;3.43;;;6.10;99.90;;;;;;5032562;28;20384;-79
2022/01/22 10:18:02;;;;;;;3.70;2.80;;;6.10;99.90;;;;;;5016829;28;20383;-79
2022/01/22 10:20:47;;;;;;;2.80;2.60;;;6.10;99.90;;;;;;5002935;28;20511;-79
2022/01/22 10:23:38;;;;;;;2.43;2.23;;;6.20;99.90;;;;;;5020795;28;20388;-78
2022/01/22 10:26:23;;;;;;;4.37;4.00;;;6.20;99.90;;;;;;5034275;28;20387;-79
2022/01/22 10:29:10;;;;;;;3.90;3.40;;;6.20;99.90;;;;;;5028168;28;20527;-78
2022/01/22 10:32:02;;;;;;;3.40;3.10;;;6.20;99.90;;;;;;4989986;28;20462;-79
2022/01/22 10:34:46;;;;;;;5.63;3.00;;;6.20;99.90;;;;;;5031006;28;20543;-80
2022/01/22 10:37:31;;;;;;;3.57;3.20;;;6.20;99.90;;;;;;5031437;28;20390;-80
2022/01/22 10:40:19;;;;;;;5.07;4.60;;;6.20;99.90;;;;;;5002833;28;20403;-80
2022/01/22 10:43:30;;;;;;;4.77;3.80;;;6.20;99.90;;;;;;5016525;28;20371;-80
2022/01/22 10:46:20;;;;;;;3.70;2.97;;;6.20;99.90;;;;;;5030332;28;20419;-79
2022/01/22 10:49:15;;;;;;;3.97;3.57;;;6.20;99.90;;;;;;5028659;28;20499;-79
2022/01/22 10:52:04;;;;;;;3.70;3.47;;;6.30;99.90;;;;;;5029960;28;20392;-79
2022/01/22 10:55:01;;;;;;;7.90;5.13;;;6.20;99.90;;;;;;5031269;28;20404;-79
2022/01/22 10:58:06;;;;;;;2.93;2.70;;;6.30;99.90;;;;;;5002775;28;20440;-79
2022/01/22 11:00:59;;;;;;;3.33;3.03;;;6.30;99.90;;;;;;5015924;28;20459;-79
2022/01/22 11:03:44;;;;;;;2.70;2.50;;;6.40;99.90;;;;;;5030264;28;20392;-79
2022/01/22 11:06:29;;;;;;;4.53;3.63;;;6.30;99.90;;;;;;5000432;28;20396;-79
2022/01/22 11:09:14;;;;;;;3.60;3.30;;;6.30;99.90;;;;;;5029209;28;20447;-79
2022/01/22 11:12:00;;;;;;;4.93;3.30;;;6.30;99.90;;;;;;5029097;28;20852;-79
2022/01/22 11:14:45;;;;;;;5.90;5.13;;;6.20;99.90;;;;;;5013456;28;20373;-79
2022/01/22 11:17:32;;;;;;;3.77;3.20;;;6.10;99.90;;;;;;5030755;28;20466;-79
2022/01/22 11:20:16;;;;;;;4.00;3.13;;;6.20;99.90;;;;;;5030045;28;20358;-79
2022/01/22 11:23:01;;;;;;;4.33;3.93;;;6.30;99.90;;;;;;5029926;28;20478;-79
2022/01/22 11:25:46;;;;;;;3.77;3.23;;;6.20;99.90;;;;;;5029278;28;20449;-80
2022/01/22 11:28:30;;;;;;;6.57;5.60;;;6.20;99.90;;;;;;5029363;28;20395;-80
2022/01/22 11:31:17;;;;;;;5.30;4.80;;;6.20;99.90;;;;;;5030276;28;20395;-79
2022/01/22 11:34:03;;;;;;;2.77;2.57;;;6.20;99.90;;;;;;5015297;28;20386;-79
2022/01/22 11:37:20;;;;;;;4.80;3.70;;;6.30;99.90;;;;;;5029752;28;20404;-79
2022/01/22 11:40:14;;;;;;;3.93;3.13;;;6.30;99.90;;;;;;5018136;28;20461;-79
2022/01/22 11:43:06;;;;;;;4.73;3.97;;;6.40;99.90;;;;;;5030312;28;20391;-79
2022/01/22 11:45:54;;;;;;;3.40;3.10;;;6.40;99.90;;;;;;5029791;28;20390;-79
2022/01/22 11:48:38;;;;;;;5.23;4.30;;;6.40;99.90;;;;;;5029289;28;20508;-79
2022/01/22 11:51:24;;;;;;;2.00;1.90;;;6.40;99.90;;;;;;5029980;28;20398;-79
2022/01/22 11:54:10;;;;;;;2.90;2.70;;;6.40;99.90;;;;;;5029471;28;20384;-79
2022/01/22 11:56:55;;;;;;;3.43;3.23;;;6.30;99.90;;;;;;5029732;28;20423;-79
2022/01/22 11:59:41;;;;;;;4.57;4.00;;;6.30;99.90;;;;;;5013454;28;20410;-79
2022/01/22 12:02:27;;;;;;;4.23;3.23;;;6.30;99.90;;;;;;5027423;28;20407;-80
2022/01/22 12:05:12;;;;;;;2.60;2.40;;;6.20;99.90;;;;;;5014973;28;20370;-80
2022/01/22 12:07:58;;;;;;;2.80;2.60;;;6.20;99.90;;;;;;5029603;28;20442;-80
2022/01/22 12:14:25;;;;;;;3.50;3.13;;;6.30;99.90;;;;;;5030733;28;20458;-79
2022/01/22 12:16:48;;;;;;;3.37;2.80;;;6.20;99.90;;;;;;5017005;28;20395;-79
2022/01/22 12:19:53;;;;;;;5.13;3.40;;;6.20;99.90;;;;;;5015982;28;20480;-79
2022/01/22 12:22:53;;;;;;;3.80;3.37;;;6.20;99.90;;;;;;5016683;28;20493;-79
2022/01/22 12:25:49;;;;;;;5.80;4.53;;;6.20;99.90;;;;;;5017005;28;20423;-80
2022/01/22 12:28:43;;;;;;;3.80;3.50;;;6.30;99.90;;;;;;5015701;28;20361;-80
2022/01/22 12:31:29;;;;;;;4.87;4.47;;;6.30;99.90;;;;;;5011893;28;20383;-79
2022/01/22 12:34:13;;;;;;;4.47;4.07;;;6.30;99.90;;;;;;5018278;28;20399;-80
2022/01/22 12:37:18;;;;;;;4.17;3.77;;;6.30;99.90;;;;;;5017483;28;20457;-79
2022/01/22 12:40:06;;;;;;;3.90;3.57;;;6.30;99.90;;;;;;5032550;28;20378;-79
2022/01/22 12:42:59;;;;;;;4.30;3.90;;;6.30;99.90;;;;;;5033518;28;20420;-79
2022/01/22 12:45:53;;;;;;;2.90;2.70;;;6.30;99.90;;;;;;5034091;28;20380;-79
2022/01/22 12:48:40;;;;;;;3.53;3.23;;;6.20;99.90;;;;;;5031957;28;20407;-79
2022/01/22 12:51:26;;;;;;;4.37;3.97;;;6.20;99.90;;;;;;5032507;28;20358;-79
2022/01/22 12:54:10;;;;;;;6.00;3.50;;;6.30;99.90;;;;;;5005379;28;20395;-78
2022/01/22 12:57:06;;;;;;;4.67;4.20;;;6.20;99.90;;;;;;5020733;28;20434;-78
2022/01/22 13:00:08;;;;;;;6.13;4.17;;;6.30;99.90;;;;;;4990424;28;20416;-78
2022/01/22 13:02:55;;;;;;;7.40;3.40;;;6.20;99.90;;;;;;5007639;28;20391;-78
2022/01/22 13:05:45;;;;;;;3.30;3.00;;;6.20;99.90;;;;;;4978083;28;20452;-79
2022/01/22 13:08:31;;;;;;;4.37;3.97;;;6.20;99.90;;;;;;5005355;28;20399;-80
2022/01/22 13:11:18;;;;;;;4.90;4.07;;;6.30;99.90;;;;;;5008619;28;20413;-80
2022/01/22 13:14:03;;;;;;;3.50;3.20;;;6.30;99.90;;;;;;5025478;28;20841;-81
2022/01/22 13:16:51;;;;;;;3.87;3.53;;;6.30;99.90;;;;;;5024975;28;20443;-81
2022/01/22 13:19:38;;;;;;;4.10;3.73;;;6.30;99.90;;;;;;5013084;28;20400;-80
2022/01/22 13:22:32;;;;;;;4.20;3.80;;;6.40;99.90;;;;;;5011720;28;20878;-80
2022/01/22 13:25:17;;;;;;;3.00;2.80;;;6.40;99.90;;;;;;5030306;28;20366;-80
2022/01/22 13:28:07;;;;;;;4.40;4.00;;;6.40;99.90;;;;;;5013870;28;20402;-81
2022/01/22 13:30:58;;;;;;;3.87;3.57;;;6.50;99.90;;;;;;5026992;28;20396;-81
2022/01/22 13:33:51;;;;;;;3.83;3.17;;;6.50;99.90;;;;;;5012064;28;20475;-80
2022/01/22 13:36:52;;;;;;;2.80;2.57;;;6.50;99.90;;;;;;5012893;28;20524;-80
2022/01/22 13:40:12;;;;;;;4.63;4.23;;;6.50;99.90;;;;;;5028367;28;20362;-82
2022/01/22 13:48:59;;;;;;;3.50;3.20;;;6.50;99.90;;;;;;5014272;28;20446;-81
2022/01/22 13:51:45;;;;;;;4.30;3.90;;;6.50;99.90;;;;;;5026339;28;20371;-80
2022/01/22 13:54:32;;;;;;;3.87;3.57;;;6.50;99.90;;;;;;5009479;28;20502;-78
2022/01/22 13:57:25;;;;;;;4.50;3.33;;;6.50;99.90;;;;;;5006494;28;20396;-80
2022/01/22 14:00:14;;;;;;;3.63;3.33;;;6.60;99.90;;;;;;5021614;28;20453;-79
2022/01/22 14:03:19;;;;;;;4.37;3.97;;;6.60;99.90;;;;;;5021594;28;20423;-79
2022/01/22 14:06:03;;;;;;;5.47;3.77;;;6.60;99.90;;;;;;5023087;28;20373;-79
2022/01/22 14:08:47;;;;;;;3.90;2.83;;;6.60;99.90;;;;;;5022297;28;20469;-82
2022/01/22 14:11:32;;;;;;;4.73;3.10;;;6.60;99.90;;;;;;5007135;28;20434;-81
2022/01/22 14:14:16;;;;;;;3.47;3.17;;;6.70;99.90;;;;;;5022425;28;20442;-82
2022/01/22 14:17:10;;;;;;;5.10;3.47;;;6.70;99.90;;;;;;5022249;28;20455;-81
2022/01/22 14:20:06;;;;;;;3.23;2.90;;;6.60;99.90;;;;;;5022417;28;20431;-81
2022/01/22 14:23:03;;;;;;;3.80;3.50;;;6.70;99.90;;;;;;5021745;28;20750;-81
2022/01/22 14:26:04;;;;;;;4.97;4.50;;;6.70;99.90;;;;;;5023151;28;20400;-81
2022/01/22 14:28:55;;;;;;;3.63;3.33;;;6.70;99.90;;;;;;5022298;28;20773;-83
2022/01/22 14:31:47;;;;;;;9.80;4.60;;;6.70;99.90;;;;;;5021341;28;20415;-81
2022/01/22 14:34:34;;;;;;;4.30;4.00;;;6.70;99.90;;;;;;5021735;28;20370;-81
2022/01/22 14:37:30;;;;;;;3.87;3.03;;;6.70;99.90;;;;;;5022289;28;20408;-81
2022/01/22 14:46:18;;;;;;;3.00;2.60;;;6.60;99.90;;;;;;5009815;28;20457;-81
2022/01/22 14:49:02;;;;;;;3.20;2.90;;;6.60;99.90;;;;;;4999934;28;20844;-81
2022/01/22 14:51:46;;;;;;;3.80;3.40;;;6.60;99.90;;;;;;5006074;28;20482;-81
2022/01/22 14:54:35;;;;;;;3.27;2.97;;;6.60;99.90;;;;;;5021841;28;20475;-81
2022/01/22 14:57:22;;;;;;;4.60;3.77;;;6.60;99.90;;;;;;5021510;28;20363;-82
2022/01/22 15:00:10;;;;;;;4.40;4.10;;;6.60;99.90;;;;;;4992743;28;20466;-82
2022/01/22 15:02:56;;;;;;;2.80;2.60;;;6.60;99.90;;;;;;5020063;28;20427;-80
2022/01/22 15:05:43;;;;;;;3.70;3.40;;;6.60;99.90;;;;;;5007130;28;20458;-82
2022/01/22 15:08:27;;;;;;;2.73;2.53;;;6.60;99.90;;;;;;4991847;28;20392;-80
2022/01/22 15:11:12;;;;;;;9.17;4.40;;;6.60;99.90;;;;;;5020448;28;20450;-81
2022/01/22 15:13:57;;;;;;;4.47;4.07;;;6.60;99.90;;;;;;5005711;28;20410;-80
2022/01/22 15:16:47;;;;;;;3.40;3.10;;;6.60;99.90;;;;;;5008120;28;20382;-81
2022/01/22 15:19:32;;;;;;;3.60;3.30;;;6.60;99.90;;;;;;5023124;28;20402;-81
2022/01/22 15:22:18;;;;;;;3.23;2.93;;;6.60;99.90;;;;;;5022298;28;20530;-81
2022/01/22 15:25:04;;;;;;;2.70;2.47;;;6.50;99.90;;;;;;5006449;28;20422;-81
2022/01/22 15:27:48;;;;;;;3.40;3.10;;;6.50;99.90;;;;;;4979213;28;20403;-82
2022/01/22 15:30:36;;;;;;;4.50;2.87;;;6.60;99.90;;;;;;5021188;28;20466;-81
2022/01/22 15:33:24;;;;;;;5.53;4.20;;;6.60;99.90;;;;;;5006050;28;20420;-81
2022/01/22 15:36:09;;;;;;;3.10;2.90;;;6.60;99.90;;;;;;5006760;28;20354;-81
2022/01/22 15:38:56;;;;;;;3.40;3.00;;;6.60;99.90;;;;;;4977933;28;20395;-81
2022/01/22 15:41:40;;;;;;;6.00;3.80;;;6.60;99.90;;;;;;4976859;28;20387;-81
2022/01/22 15:44:25;;;;;;;4.23;3.40;;;6.60;99.90;;;;;;5020612;28;20395;-82
2022/01/22 15:47:11;;;;;;;4.43;4.03;;;6.60;99.90;;;;;;5020874;28;20667;-81
2022/01/22 15:49:57;;;;;;;4.20;3.80;;;6.60;99.90;;;;;;5006271;28;20447;-82
2022/01/22 15:52:42;;;;;;;4.67;3.47;;;6.50;99.90;;;;;;5021325;28;20384;-81
2022/01/22 15:55:27;;;;;;;4.00;3.60;;;6.60;99.90;;;;;;5006230;28;20415;-81
2022/01/22 15:58:11;;;;;;;4.40;3.70;;;6.60;99.90;;;;;;5005647;28;20935;-81
2022/01/22 16:00:56;;;;;;;6.20;5.30;;;6.60;99.90;;;;;;5023346;28;20525;-80
2022/01/22 16:03:44;;;;;;;4.67;4.27;;;6.60;99.90;;;;;;5013486;28;20388;-80
2022/01/22 16:09:34;;;;;;;7.50;4.27;;;6.60;99.90;;;;;;4998755;28;20522;-82
2022/01/22 16:12:19;;;;;;;7.50;3.50;;;6.60;99.90;;;;;;5000644;28;20430;-81
2022/01/22 16:15:04;;;;;;;5.20;3.73;;;6.60;99.90;;;;;;5029611;28;20415;-81
2022/01/22 16:17:49;;;;;;;5.07;3.80;;;6.60;99.90;;;;;;5016448;28;20366;-81
2022/01/22 16:20:34;;;;;;;4.50;3.47;;;6.60;99.90;;;;;;5015448;28;20539;-80
2022/01/22 16:23:18;;;;;;;5.60;3.60;;;6.50;99.90;;;;;;5031997;28;20435;-79